sensor_id;sensor_type;location;lat;lon;timestamp;pressure;altitude;pressure_sealevel;temperature;humidity
53619;BME280;68717;53.040;18.488;2023-11-21T00:00:01;100662.19;;;2.52;100.00
53619;BME280;68717;53.040;18.488;2023-11-21T00:00:15;100665.69;;;2.52;100.00
53619;BME280;68717;53.040;18.488;2023-11-21T00:00:49;100664.00;;;2.51;100.00
53619;BME280;68717;53.040;18.488;2023-11-21T00:01:22;100666.66;;;2.51;100.00
53619;BME280;68717;53.040;18.488;2023-11-21T00:01:35;100666.66;;;2.51;100.00
53619;BME280;68717;53.040;18.488;2023-11-21T00:01:48;100665.69;;;2.52;100.00
53619;BME280;68717;53.040;18.488;2023-11-21T00:02:01;100672.78;;;2.52;100.00
53619;BME280;68717;53.040;18.488;2023-11-21T00:02:14;100665.69;;;2.52;100.00
53619;BME280;68717;53.040;18.488;2023-11-21T00:02:27;100671.00;;;2.52;100.00
53619;BME280;68717;53.040;18.488;2023-11-21T00:02:41;100665.69;;;2.52;100.00
53619;BME280;68717;53.040;18.488;2023-11-21T00:02:57;100670.13;;;2.52;100.00
53619;BME280;68717;53.040;18.488;2023-11-21T00:03:10;100658.72;;;2.51;100.00
53619;BME280;68717;53.040;18.488;2023-11-21T00:03:24;100665.69;;;2.52;100.00
53619;BME280;68717;53.040;18.488;2023-11-21T00:03:37;100664.00;;;2.51;100.00
53619;BME280;68717;53.040;18.488;2023-11-21T00:03:49;100664.00;;;2.51;100.00
53619;BME280;68717;53.040;18.488;2023-11-21T00:04:02;100661.34;;;2.51;100.00
53619;BME280;68717;53.040;18.488;2023-11-21T00:04:15;100664.91;;;2.50;100.00
53619;BME280;68717;53.040;18.488;2023-11-21T00:04:29;100671.16;;;2.49;100.00
53619;BME280;68717;53.040;18.488;2023-11-21T00:04:42;100664.06;;;2.50;100.00
53619;BME280;68717;53.040;18.488;2023-11-21T00:04:54;100667.56;;;2.50;100.00
53619;BME280;68717;53.040;18.488;2023-11-21T00:05:08;100666.72;;;2.50;100.00
53619;BME280;68717;53.040;18.488;2023-11-21T00:05:24;100666.72;;;2.50;100.00
53619;BME280;68717;53.040;18.488;2023-11-21T00:05:37;100672.00;;;2.50;100.00
53619;BME280;68717;53.040;18.488;2023-11-21T00:05:50;100666.72;;;2.50;100.00
53619;BME280;68717;53.040;18.488;2023-11-21T00:06:05;100676.47;;;2.49;100.00
53619;BME280;68717;53.040;18.488;2023-11-21T00:06:21;100667.56;;;2.50;100.00
53619;BME280;68717;53.040;18.488;2023-11-21T00:06:33;100668.44;;;2.51;100.00
53619;BME280;68717;53.040;18.488;2023-11-21T00:06:46;100662.28;;;2.50;100.00
53619;BME280;68717;53.040;18.488;2023-11-21T00:06:59;100672.84;;;2.50;100.00
53619;BME280;68717;53.040;18.488;2023-11-21T00:07:12;100663.16;;;2.51;100.00
53619;BME280;68717;53.040;18.488;2023-11-21T00:07:25;100664.91;;;2.50;100.00
53619;BME280;68717;53.040;18.488;2023-11-21T00:07:38;100662.28;;;2.50;100.00
53619;BME280;68717;53.040;18.488;2023-11-21T00:07:50;100664.06;;;2.50;100.00
53619;BME280;68717;53.040;18.488;2023-11-21T00:08:04;100670.22;;;2.50;100.00
53619;BME280;68717;53.040;18.488;2023-11-21T00:08:17;100673.81;;;2.49;100.00
53619;BME280;68717;53.040;18.488;2023-11-21T00:08:30;100668.59;;;2.48;100.00
53619;BME280;68717;53.040;18.488;2023-11-21T00:08:42;100667.75;;;2.47;100.00
53619;BME280;68717;53.040;18.488;2023-11-21T00:08:55;100667.75;;;2.47;100.00
53619;BME280;68717;53.040;18.488;2023-11-21T00:09:08;100666.06;;;2.46;100.00
53619;BME280;68717;53.040;18.488;2023-11-21T00:09:21;100666.06;;;2.46;100.00
53619;BME280;68717;53.040;18.488;2023-11-21T00:09:34;100666.97;;;2.45;100.00
53619;BME280;68717;53.040;18.488;2023-11-21T00:09:48;100666.13;;;2.44;100.00
53619;BME280;68717;53.040;18.488;2023-11-21T00:10:01;100664.31;;;2.45;100.00
53619;BME280;68717;53.040;18.488;2023-11-21T00:10:15;100662.63;;;2.44;100.00
53619;BME280;68717;53.040;18.488;2023-11-21T00:10:28;100662.63;;;2.44;100.00
53619;BME280;68717;53.040;18.488;2023-11-21T00:10:41;100665.34;;;2.42;100.00
53619;BME280;68717;53.040;18.488;2023-11-21T00:10:54;100670.72;;;2.41;100.00
53619;BME280;68717;53.040;18.488;2023-11-21T00:11:07;100663.63;;;2.41;100.00
53619;BME280;68717;53.040;18.488;2023-11-21T00:11:21;100668.06;;;2.41;100.00
53619;BME280;68717;53.040;18.488;2023-11-21T00:11:34;100668.06;;;2.41;100.00
53619;BME280;68717;53.040;18.488;2023-11-21T00:11:46;100669.03;;;2.40;100.00
53619;BME280;68717;53.040;18.488;2023-11-21T00:11:59;100669.03;;;2.40;100.00
53619;BME280;68717;53.040;18.488;2023-11-21T00:12:12;100669.94;;;2.39;100.00
53619;BME280;68717;53.040;18.488;2023-11-21T00:12:26;100665.59;;;2.38;100.00
53619;BME280;68717;53.040;18.488;2023-11-21T00:12:40;100665.59;;;2.38;100.00
53619;BME280;68717;53.040;18.488;2023-11-21T00:12:54;100668.25;;;2.38;100.00
53619;BME280;68717;53.040;18.488;2023-11-21T00:13:07;100671.81;;;2.37;100.00
53619;BME280;68717;53.040;18.488;2023-11-21T00:13:20;100663.88;;;2.37;100.00
53619;BME280;68717;53.040;18.488;2023-11-21T00:13:35;100673.53;;;2.38;100.00
53619;BME280;68717;53.040;18.488;2023-11-21T00:13:48;100663.88;;;2.37;100.00
53619;BME280;68717;53.040;18.488;2023-11-21T00:14:02;100670.06;;;2.37;100.00
53619;BME280;68717;53.040;18.488;2023-11-21T00:14:15;100666.53;;;2.37;100.00
53619;BME280;68717;53.040;18.488;2023-11-21T00:14:28;100674.47;;;2.37;100.00
53619;BME280;68717;53.040;18.488;2023-11-21T00:14:40;100676.19;;;2.38;100.00
53619;BME280;68717;53.040;18.488;2023-11-21T00:14:53;100678.84;;;2.38;100.00
53619;BME280;68717;53.040;18.488;2023-11-21T00:15:10;100669.94;;;2.39;100.00
53619;BME280;68717;53.040;18.488;2023-11-21T00:15:23;100669.16;;;2.37;100.00
53619;BME280;68717;53.040;18.488;2023-11-21T00:15:38;100673.53;;;2.38;100.00
53619;BME280;68717;53.040;18.488;2023-11-21T00:15:51;100673.53;;;2.38;100.00
53619;BME280;68717;53.040;18.488;2023-11-21T00:16:04;100669.94;;;2.39;100.00
53619;BME280;68717;53.040;18.488;2023-11-21T00:16:20;100670.91;;;2.38;100.00
53619;BME280;68717;53.040;18.488;2023-11-21T00:16:34;100673.53;;;2.38;100.00
53619;BME280;68717;53.040;18.488;2023-11-21T00:16:47;100671.81;;;2.37;100.00
53619;BME280;68717;53.040;18.488;2023-11-21T00:17:00;100675.34;;;2.37;100.00
53619;BME280;68717;53.040;18.488;2023-11-21T00:17:13;100675.34;;;2.37;100.00
53619;BME280;68717;53.040;18.488;2023-11-21T00:17:25;100678.91;;;2.36;100.00
53619;BME280;68717;53.040;18.488;2023-11-21T00:17:38;100674.56;;;2.35;100.00
53619;BME280;68717;53.040;18.488;2023-11-21T00:17:52;100672.75;;;2.36;100.00
53619;BME280;68717;53.040;18.488;2023-11-21T00:18:05;100678.06;;;2.36;100.00
53619;BME280;68717;53.040;18.488;2023-11-21T00:18:18;100681.56;;;2.36;100.00
53619;BME280;68717;53.040;18.488;2023-11-21T00:18:31;100683.28;;;2.37;100.00
53619;BME280;68717;53.040;18.488;2023-11-21T00:18:43;100678.06;;;2.36;100.00
53619;BME280;68717;53.040;18.488;2023-11-21T00:18:58;100675.41;;;2.36;100.00
53619;BME280;68717;53.040;18.488;2023-11-21T00:19:12;100679.75;;;2.37;100.00
53619;BME280;68717;53.040;18.488;2023-11-21T00:19:25;100683.34;;;2.36;100.00
53619;BME280;68717;53.040;18.488;2023-11-21T00:19:37;100681.56;;;2.36;100.00
53619;BME280;68717;53.040;18.488;2023-11-21T00:19:50;100684.19;;;2.36;100.00
53619;BME280;68717;53.040;18.488;2023-11-21T00:20:05;100684.19;;;2.36;100.00
53619;BME280;68717;53.040;18.488;2023-11-21T00:20:19;100674.56;;;2.35;100.00
53619;BME280;68717;53.040;18.488;2023-11-21T00:20:32;100678.97;;;2.35;100.00
53619;BME280;68717;53.040;18.488;2023-11-21T00:20:45;100683.34;;;2.36;100.00
53619;BME280;68717;53.040;18.488;2023-11-21T00:20:58;100679.84;;;2.35;100.00
53619;BME280;68717;53.040;18.488;2023-11-21T00:21:11;100677.22;;;2.35;100.00
53619;BME280;68717;53.040;18.488;2023-11-21T00:21:25;100677.28;;;2.34;100.00
53619;BME280;68717;53.040;18.488;2023-11-21T00:21:38;100677.28;;;2.34;100.00
53619;BME280;68717;53.040;18.488;2023-11-21T00:21:50;100680.78;;;2.34;100.00
53619;BME280;68717;53.040;18.488;2023-11-21T00:22:03;100679.09;;;2.33;100.00
53619;BME280;68717;53.040;18.488;2023-11-21T00:22:16;100680.84;;;2.33;100.00
53619;BME280;68717;53.040;18.488;2023-11-21T00:22:29;100686.13;;;2.33;100.00
53619;BME280;68717;53.040;18.488;2023-11-21T00:22:41;100680.84;;;2.33;100.00
53619;BME280;68717;53.040;18.488;2023-11-21T00:22:55;100681.72;;;2.33;100.00
53619;BME280;68717;53.040;18.488;2023-11-21T00:23:08;100678.19;;;2.33;100.00
53619;BME280;68717;53.040;18.488;2023-11-21T00:23:22;100679.16;;;2.32;100.00
53619;BME280;68717;53.040;18.488;2023-11-21T00:23:35;100681.81;;;2.32;100.00
53619;BME280;68717;53.040;18.488;2023-11-21T00:23:47;100680.00;;;2.32;100.00
53619;BME280;68717;53.040;18.488;2023-11-21T00:24:00;100679.09;;;2.33;100.00
53619;BME280;68717;53.040;18.488;2023-11-21T00:24:13;100679.94;;;2.34;100.00
53619;BME280;68717;53.040;18.488;2023-11-21T00:24:26;100682.56;;;2.34;100.00
53619;BME280;68717;53.040;18.488;2023-11-21T00:24:38;100683.50;;;2.33;100.00
53619;BME280;68717;53.040;18.488;2023-11-21T00:24:52;100680.84;;;2.33;100.00
53619;BME280;68717;53.040;18.488;2023-11-21T00:25:06;100681.81;;;2.32;100.00
53619;BME280;68717;53.040;18.488;2023-11-21T00:25:21;100676.50;;;2.32;100.00
53619;BME280;68717;53.040;18.488;2023-11-21T00:25:34;100684.44;;;2.32;100.00
53619;BME280;68717;53.040;18.488;2023-11-21T00:25:47;100682.75;;;2.31;100.00
53619;BME280;68717;53.040;18.488;2023-11-21T00:26:00;100679.22;;;2.30;100.00
53619;BME280;68717;53.040;18.488;2023-11-21T00:26:13;100681.88;;;2.30;100.00
53619;BME280;68717;53.040;18.488;2023-11-21T00:26:26;100680.19;;;2.29;100.00
53619;BME280;68717;53.040;18.488;2023-11-21T00:26:40;100680.19;;;2.29;100.00
53619;BME280;68717;53.040;18.488;2023-11-21T00:26:53;100689.91;;;2.29;100.00
53619;BME280;68717;53.040;18.488;2023-11-21T00:27:05;100679.34;;;2.29;100.00
53619;BME280;68717;53.040;18.488;2023-11-21T00:27:18;100678.38;;;2.30;100.00
53619;BME280;68717;53.040;18.488;2023-11-21T00:27:31;100688.13;;;2.29;100.00
53619;BME280;68717;53.040;18.488;2023-11-21T00:27:43;100682.91;;;2.28;100.00
53619;BME280;68717;53.040;18.488;2023-11-21T00:27:56;100677.59;;;2.28;100.00
53619;BME280;68717;53.040;18.488;2023-11-21T00:28:09;100694.31;;;2.28;100.00
53619;BME280;68717;53.040;18.488;2023-11-21T00:28:22;100686.50;;;2.27;100.00
53619;BME280;68717;53.040;18.488;2023-11-21T00:28:36;100683.06;;;2.25;100.00
53619;BME280;68717;53.040;18.488;2023-11-21T00:28:49;100683.06;;;2.25;100.00
53619;BME280;68717;53.040;18.488;2023-11-21T00:29:02;100680.44;;;2.25;100.00
53619;BME280;68717;53.040;18.488;2023-11-21T00:29:15;100689.28;;;2.23;100.00
53619;BME280;68717;53.040;18.488;2023-11-21T00:29:29;100683.13;;;2.23;100.00
53619;BME280;68717;53.040;18.488;2023-11-21T00:29:42;100684.94;;;2.22;100.00
53619;BME280;68717;53.040;18.488;2023-11-21T00:29:55;100694.69;;;2.22;100.00
53619;BME280;68717;53.040;18.488;2023-11-21T00:30:08;100685.84;;;2.21;100.00
53619;BME280;68717;53.040;18.488;2023-11-21T00:30:22;100691.94;;;2.23;100.00
53619;BME280;68717;53.040;18.488;2023-11-21T00:30:35;100693.78;;;2.21;100.00
53619;BME280;68717;53.040;18.488;2023-11-21T00:30:47;100692.03;;;2.22;100.00
53619;BME280;68717;53.040;18.488;2023-11-21T00:31:00;100687.66;;;2.21;100.00
53619;BME280;68717;53.040;18.488;2023-11-21T00:31:13;100697.38;;;2.20;100.00
53619;BME280;68717;53.040;18.488;2023-11-21T00:31:26;100689.44;;;2.20;100.00
53619;BME280;68717;53.040;18.488;2023-11-21T00:31:38;100702.69;;;2.20;100.00
53619;BME280;68717;53.040;18.488;2023-11-21T00:31:51;100692.09;;;2.20;100.00
53619;BME280;68717;53.040;18.488;2023-11-21T00:32:05;100692.09;;;2.20;100.00
53619;BME280;68717;53.040;18.488;2023-11-21T00:32:18;100698.22;;;2.21;100.00
53619;BME280;68717;53.040;18.488;2023-11-21T00:32:31;100692.09;;;2.20;100.00
53619;BME280;68717;53.040;18.488;2023-11-21T00:32:44;100691.25;;;2.20;100.00
53619;BME280;68717;53.040;18.488;2023-11-21T00:32:57;100692.09;;;2.20;100.00
53619;BME280;68717;53.040;18.488;2023-11-21T00:33:10;100690.31;;;2.21;100.00
53619;BME280;68717;53.040;18.488;2023-11-21T00:33:23;100699.97;;;2.22;100.00
53619;BME280;68717;53.040;18.488;2023-11-21T00:33:37;100691.16;;;2.21;100.00
53619;BME280;68717;53.040;18.488;2023-11-21T00:33:50;100693.78;;;2.21;100.00
53619;BME280;68717;53.040;18.488;2023-11-21T00:34:03;100690.31;;;2.21;100.00
53619;BME280;68717;53.040;18.488;2023-11-21T00:34:16;100692.03;;;2.22;100.00
53619;BME280;68717;53.040;18.488;2023-11-21T00:34:30;100695.41;;;2.24;100.00
53619;BME280;68717;53.040;18.488;2023-11-21T00:34:42;100698.06;;;2.24;100.00
53619;BME280;68717;53.040;18.488;2023-11-21T00:34:55;100692.88;;;2.22;100.00
53619;BME280;68717;53.040;18.488;2023-11-21T00:35:08;100700.81;;;2.22;100.00
53619;BME280;68717;53.040;18.488;2023-11-21T00:35:21;100702.50;;;2.23;100.00
53619;BME280;68717;53.040;18.488;2023-11-21T00:35:33;100698.94;;;2.25;100.00
53619;BME280;68717;53.040;18.488;2023-11-21T00:35:46;100696.28;;;2.25;100.00
53619;BME280;68717;53.040;18.488;2023-11-21T00:35:59;100692.78;;;2.24;100.00
53619;BME280;68717;53.040;18.488;2023-11-21T00:36:13;100690.13;;;2.24;100.00
53619;BME280;68717;53.040;18.488;2023-11-21T00:36:26;100695.41;;;2.24;100.00
53619;BME280;68717;53.040;18.488;2023-11-21T00:36:40;100693.66;;;2.25;100.00
53619;BME280;68717;53.040;18.488;2023-11-21T00:36:53;100693.72;;;2.23;100.00
53619;BME280;68717;53.040;18.488;2023-11-21T00:37:05;100697.22;;;2.23;100.00
53619;BME280;68717;53.040;18.488;2023-11-21T00:37:20;100692.88;;;2.22;100.00
53619;BME280;68717;53.040;18.488;2023-11-21T00:37:32;100706.00;;;2.24;100.00
53619;BME280;68717;53.040;18.488;2023-11-21T00:37:45;100703.34;;;2.24;100.00
53619;BME280;68717;53.040;18.488;2023-11-21T00:37:58;100696.38;;;2.23;100.00
53619;BME280;68717;53.040;18.488;2023-11-21T00:38:12;100702.50;;;2.23;100.00
53619;BME280;68717;53.040;18.488;2023-11-21T00:38:25;100710.44;;;2.23;100.00
53619;BME280;68717;53.040;18.488;2023-11-21T00:38:37;100702.50;;;2.23;100.00
53619;BME280;68717;53.040;18.488;2023-11-21T00:38:52;100697.22;;;2.23;100.00
53619;BME280;68717;53.040;18.488;2023-11-21T00:39:05;100702.50;;;2.23;100.00
53619;BME280;68717;53.040;18.488;2023-11-21T00:39:18;100702.50;;;2.23;100.00
53619;BME280;68717;53.040;18.488;2023-11-21T00:39:30;100696.38;;;2.23;100.00
53619;BME280;68717;53.040;18.488;2023-11-21T00:39:45;100701.66;;;2.23;100.00
53619;BME280;68717;53.040;18.488;2023-11-21T00:39:58;100696.38;;;2.23;100.00
53619;BME280;68717;53.040;18.488;2023-11-21T00:40:12;100706.00;;;2.24;100.00
53619;BME280;68717;53.040;18.488;2023-11-21T00:40:25;100698.06;;;2.24;100.00
53619;BME280;68717;53.040;18.488;2023-11-21T00:40:37;100698.94;;;2.25;100.00
53619;BME280;68717;53.040;18.488;2023-11-21T00:40:50;100697.16;;;2.25;100.00
53619;BME280;68717;53.040;18.488;2023-11-21T00:41:03;100704.22;;;2.25;100.00
53619;BME280;68717;53.040;18.488;2023-11-21T00:41:16;100701.47;;;2.26;100.00
53619;BME280;68717;53.040;18.488;2023-11-21T00:41:29;100698.00;;;2.26;100.00
53619;BME280;68717;53.040;18.488;2023-11-21T00:41:41;100698.00;;;2.26;100.00
53619;BME280;68717;53.040;18.488;2023-11-21T00:41:54;100707.66;;;2.27;100.00
53619;BME280;68717;53.040;18.488;2023-11-21T00:42:08;100697.06;;;2.27;100.00
53619;BME280;68717;53.040;18.488;2023-11-21T00:42:20;100702.38;;;2.27;100.00
53619;BME280;68717;53.040;18.488;2023-11-21T00:42:34;100697.06;;;2.27;100.00
53619;BME280;68717;53.040;18.488;2023-11-21T00:42:47;100702.38;;;2.27;100.00
53619;BME280;68717;53.040;18.488;2023-11-21T00:42:59;100703.22;;;2.27;100.00
53619;BME280;68717;53.040;18.488;2023-11-21T00:43:13;100701.41;;;2.28;100.00
53619;BME280;68717;53.040;18.488;2023-11-21T00:43:26;100704.06;;;2.28;100.00
53619;BME280;68717;53.040;18.488;2023-11-21T00:43:40;100706.56;;;2.31;100.00
53619;BME280;68717;53.040;18.488;2023-11-21T00:43:54;100704.06;;;2.28;100.00
53619;BME280;68717;53.040;18.488;2023-11-21T00:44:07;100702.25;;;2.28;100.00
53619;BME280;68717;53.040;18.488;2023-11-21T00:44:20;100701.34;;;2.29;100.00
53619;BME280;68717;53.040;18.488;2023-11-21T00:44:33;100706.47;;;2.32;100.00
53619;BME280;68717;53.040;18.488;2023-11-21T00:44:46;100707.66;;;2.27;100.00
53619;BME280;68717;53.040;18.488;2023-11-21T00:44:59;100708.50;;;2.27;100.00
53619;BME280;68717;53.040;18.488;2023-11-21T00:45:11;100709.34;;;2.28;100.00
53619;BME280;68717;53.040;18.488;2023-11-21T00:45:24;100704.84;;;2.30;100.00
53619;BME280;68717;53.040;18.488;2023-11-21T00:45:38;100702.25;;;2.28;100.00
53619;BME280;68717;53.040;18.488;2023-11-21T00:45:52;100711.16;;;2.27;100.00
53619;BME280;68717;53.040;18.488;2023-11-21T00:46:05;100709.34;;;2.28;100.00
53619;BME280;68717;53.040;18.488;2023-11-21T00:46:22;100707.66;;;2.27;100.00
53619;BME280;68717;53.040;18.488;2023-11-21T00:46:36;100702.38;;;2.27;100.00
53619;BME280;68717;53.040;18.488;2023-11-21T00:46:49;100710.31;;;2.27;100.00
53619;BME280;68717;53.040;18.488;2023-11-21T00:47:03;100705.06;;;2.25;100.00
53619;BME280;68717;53.040;18.488;2023-11-21T00:47:16;100709.53;;;2.25;100.00
53619;BME280;68717;53.040;18.488;2023-11-21T00:47:29;100709.53;;;2.25;100.00
53619;BME280;68717;53.040;18.488;2023-11-21T00:47:42;100709.53;;;2.25;100.00
53619;BME280;68717;53.040;18.488;2023-11-21T00:47:55;100708.66;;;2.24;100.00
53619;BME280;68717;53.040;18.488;2023-11-21T00:48:08;100708.66;;;2.24;100.00
53619;BME280;68717;53.040;18.488;2023-11-21T00:48:21;100707.78;;;2.23;100.00
53619;BME280;68717;53.040;18.488;2023-11-21T00:48:34;100705.16;;;2.23;100.00
53619;BME280;68717;53.040;18.488;2023-11-21T00:48:46;100702.50;;;2.23;100.00
53619;BME280;68717;53.040;18.488;2023-11-21T00:48:59;100705.16;;;2.23;100.00
53619;BME280;68717;53.040;18.488;2023-11-21T00:49:12;100707.78;;;2.23;100.00
53619;BME280;68717;53.040;18.488;2023-11-21T00:49:25;100709.53;;;2.25;100.00
53619;BME280;68717;53.040;18.488;2023-11-21T00:49:38;100706.00;;;2.24;100.00
53619;BME280;68717;53.040;18.488;2023-11-21T00:49:51;100709.53;;;2.25;100.00
53619;BME280;68717;53.040;18.488;2023-11-21T00:50:05;100706.88;;;2.25;100.00
53619;BME280;68717;53.040;18.488;2023-11-21T00:50:19;100705.06;;;2.25;100.00
53619;BME280;68717;53.040;18.488;2023-11-21T00:50:31;100708.56;;;2.26;100.00
53619;BME280;68717;53.040;18.488;2023-11-21T00:50:44;100711.22;;;2.26;100.00
53619;BME280;68717;53.040;18.488;2023-11-21T00:50:57;100711.22;;;2.26;100.00
53619;BME280;68717;53.040;18.488;2023-11-21T00:51:09;100710.31;;;2.27;100.00
53619;BME280;68717;53.040;18.488;2023-11-21T00:51:22;100707.72;;;2.25;100.00
53619;BME280;68717;53.040;18.488;2023-11-21T00:51:35;100714.72;;;2.26;100.00
53619;BME280;68717;53.040;18.488;2023-11-21T00:51:48;100711.22;;;2.26;100.00
53619;BME280;68717;53.040;18.488;2023-11-21T00:52:01;100712.06;;;2.26;100.00
53619;BME280;68717;53.040;18.488;2023-11-21T00:52:15;100708.56;;;2.26;100.00
53619;BME280;68717;53.040;18.488;2023-11-21T00:52:28;100707.66;;;2.27;100.00
53619;BME280;68717;53.040;18.488;2023-11-21T00:52:41;100704.06;;;2.28;100.00
53619;BME280;68717;53.040;18.488;2023-11-21T00:52:53;100712.84;;;2.28;100.00
53619;BME280;68717;53.040;18.488;2023-11-21T00:53:06;100711.16;;;2.27;100.00
53619;BME280;68717;53.040;18.488;2023-11-21T00:53:19;100709.34;;;2.28;100.00
53619;BME280;68717;53.040;18.488;2023-11-21T00:53:32;100711.16;;;2.27;100.00
53619;BME280;68717;53.040;18.488;2023-11-21T00:53:44;100709.34;;;2.28;100.00
53619;BME280;68717;53.040;18.488;2023-11-21T00:53:59;100712.94;;;2.27;100.00
53619;BME280;68717;53.040;18.488;2023-11-21T00:54:12;100717.28;;;2.28;100.00
53619;BME280;68717;53.040;18.488;2023-11-21T00:54:24;100707.66;;;2.27;100.00
53619;BME280;68717;53.040;18.488;2023-11-21T00:54:37;100713.78;;;2.27;100.00
53619;BME280;68717;53.040;18.488;2023-11-21T00:54:50;100713.78;;;2.27;100.00
53619;BME280;68717;53.040;18.488;2023-11-21T00:55:03;100711.16;;;2.27;100.00
53619;BME280;68717;53.040;18.488;2023-11-21T00:55:15;100714.63;;;2.28;100.00
53619;BME280;68717;53.040;18.488;2023-11-21T00:55:30;100709.34;;;2.28;100.00
53619;BME280;68717;53.040;18.488;2023-11-21T00:55:43;100713.78;;;2.27;100.00
53619;BME280;68717;53.040;18.488;2023-11-21T00:56:00;100710.31;;;2.27;100.00
53619;BME280;68717;53.040;18.488;2023-11-21T00:56:12;100719.16;;;2.26;100.00
53619;BME280;68717;53.040;18.488;2023-11-21T00:56:25;100711.22;;;2.26;100.00
53619;BME280;68717;53.040;18.488;2023-11-21T00:56:38;100720.00;;;2.26;100.00
53619;BME280;68717;53.040;18.488;2023-11-21T00:56:52;100719.16;;;2.26;100.00
53619;BME280;68717;53.040;18.488;2023-11-21T00:57:05;100715.66;;;2.25;100.00
53619;BME280;68717;53.040;18.488;2023-11-21T00:57:17;100720.09;;;2.25;100.00
53619;BME280;68717;53.040;18.488;2023-11-21T00:57:30;100720.94;;;2.25;100.00
53619;BME280;68717;53.040;18.488;2023-11-21T00:57:43;100720.94;;;2.25;100.00
53619;BME280;68717;53.040;18.488;2023-11-21T00:57:57;100721.78;;;2.26;100.00
53619;BME280;68717;53.040;18.488;2023-11-21T00:58:10;100715.66;;;2.25;100.00
53619;BME280;68717;53.040;18.488;2023-11-21T00:58:23;100715.66;;;2.25;100.00
53619;BME280;68717;53.040;18.488;2023-11-21T00:58:36;100720.94;;;2.25;100.00
53619;BME280;68717;53.040;18.488;2023-11-21T00:58:50;100718.31;;;2.25;100.00
53619;BME280;68717;53.040;18.488;2023-11-21T00:59:03;100722.66;;;2.26;100.00
53619;BME280;68717;53.040;18.488;2023-11-21T00:59:17;100720.09;;;2.25;100.00
53619;BME280;68717;53.040;18.488;2023-11-21T00:59:30;100721.78;;;2.26;100.00
53619;BME280;68717;53.040;18.488;2023-11-21T00:59:42;100722.66;;;2.26;100.00
53619;BME280;68717;53.040;18.488;2023-11-21T00:59:56;100716.50;;;2.26;100.00
53619;BME280;68717;53.040;18.488;2023-11-21T01:00:09;100716.50;;;2.26;100.00
53619;BME280;68717;53.040;18.488;2023-11-21T01:00:26;100716.56;;;2.24;100.00
53619;BME280;68717;53.040;18.488;2023-11-21T01:00:38;100720.09;;;2.25;100.00
53619;BME280;68717;53.040;18.488;2023-11-21T01:00:52;100717.47;;;2.25;100.00
53619;BME280;68717;53.040;18.488;2023-11-21T01:01:05;100719.22;;;2.24;100.00
53619;BME280;68717;53.040;18.488;2023-11-21T01:01:20;100720.09;;;2.25;100.00
53619;BME280;68717;53.040;18.488;2023-11-21T01:01:34;100724.50;;;2.24;100.00
53619;BME280;68717;53.040;18.488;2023-11-21T01:01:47;100721.03;;;2.23;100.00
53619;BME280;68717;53.040;18.488;2023-11-21T01:02:00;100721.03;;;2.23;100.00
53619;BME280;68717;53.040;18.488;2023-11-21T01:02:14;100724.50;;;2.24;100.00
53619;BME280;68717;53.040;18.488;2023-11-21T01:02:27;100725.41;;;2.25;100.00
53619;BME280;68717;53.040;18.488;2023-11-21T01:02:39;100722.75;;;2.25;100.00
53619;BME280;68717;53.040;18.488;2023-11-21T01:02:52;100718.38;;;2.23;100.00
53619;BME280;68717;53.040;18.488;2023-11-21T01:03:05;100720.09;;;2.25;100.00
53619;BME280;68717;53.040;18.488;2023-11-21T01:03:20;100721.03;;;2.23;100.00
53619;BME280;68717;53.040;18.488;2023-11-21T01:03:33;100717.53;;;2.23;100.00
53619;BME280;68717;53.040;18.488;2023-11-21T01:03:46;100723.66;;;2.23;100.00
53619;BME280;68717;53.040;18.488;2023-11-21T01:03:58;100721.03;;;2.23;100.00
53619;BME280;68717;53.040;18.488;2023-11-21T01:04:11;100723.66;;;2.23;100.00
53619;BME280;68717;53.040;18.488;2023-11-21T01:04:24;100724.63;;;2.22;100.00
53619;BME280;68717;53.040;18.488;2023-11-21T01:04:36;100729.06;;;2.22;100.00
53619;BME280;68717;53.040;18.488;2023-11-21T01:04:51;100727.25;;;2.22;100.00
53619;BME280;68717;53.040;18.488;2023-11-21T01:05:04;100727.25;;;2.22;100.00
53619;BME280;68717;53.040;18.488;2023-11-21T01:05:20;100725.53;;;2.21;100.00
53619;BME280;68717;53.040;18.488;2023-11-21T01:05:32;100725.53;;;2.21;100.00
53619;BME280;68717;53.040;18.488;2023-11-21T01:05:45;100722.88;;;2.21;100.00
53619;BME280;68717;53.040;18.488;2023-11-21T01:05:58;100730.81;;;2.21;100.00
53619;BME280;68717;53.040;18.488;2023-11-21T01:06:11;100724.69;;;2.21;100.00
53619;BME280;68717;53.040;18.488;2023-11-21T01:06:27;100731.78;;;2.20;100.00
53619;BME280;68717;53.040;18.488;2023-11-21T01:06:42;100726.47;;;2.20;100.00
53619;BME280;68717;53.040;18.488;2023-11-21T01:06:55;100729.97;;;2.21;100.00
53619;BME280;68717;53.040;18.488;2023-11-21T01:07:07;100732.63;;;2.21;100.00
53619;BME280;68717;53.040;18.488;2023-11-21T01:07:20;100729.13;;;2.20;100.00
53619;BME280;68717;53.040;18.488;2023-11-21T01:07:33;100734.41;;;2.20;100.00
53619;BME280;68717;53.040;18.488;2023-11-21T01:07:46;100732.69;;;2.19;100.00
53619;BME280;68717;53.040;18.488;2023-11-21T01:07:59;100734.41;;;2.20;100.00
53619;BME280;68717;53.040;18.488;2023-11-21T01:08:12;100729.13;;;2.20;100.00
53619;BME280;68717;53.040;18.488;2023-11-21T01:08:25;100733.56;;;2.20;100.00
53619;BME280;68717;53.040;18.488;2023-11-21T01:08:38;100733.56;;;2.20;100.00
53619;BME280;68717;53.040;18.488;2023-11-21T01:08:51;100732.63;;;2.21;100.00